sensor_id;sensor_type;location;lat;lon;timestamp;P1;durP1;ratioP1;P2;durP2;ratioP2
58621;SDS011;44389;51.578;5.456;2022-12-16T00:01:43;130.48;;;89.88;;
58621;SDS011;44389;51.578;5.456;2022-12-16T00:04:08;125.63;;;85.15;;
58621;SDS011;44389;51.578;5.456;2022-12-16T00:06:34;91.85;;;36.92;;
58621;SDS011;44389;51.578;5.456;2022-12-16T00:08:59;126.53;;;88.03;;
58621;SDS011;44389;51.578;5.456;2022-12-16T00:11:25;97.63;;;35.20;;
58621;SDS011;44389;51.578;5.456;2022-12-16T00:13:51;126.97;;;84.38;;
58621;SDS011;44389;51.578;5.456;2022-12-16T00:16:17;130.18;;;87.25;;
58621;SDS011;44389;51.578;5.456;2022-12-16T00:18:44;85.32;;;34.95;;
58621;SDS011;44389;51.578;5.456;2022-12-16T00:21:10;120.88;;;84.07;;
58621;SDS011;44389;51.578;5.456;2022-12-16T00:23:36;135.20;;;86.75;;
58621;SDS011;44389;51.578;5.456;2022-12-16T00:26:03;131.38;;;87.85;;
58621;SDS011;44389;51.578;5.456;2022-12-16T00:28:29;127.72;;;86.88;;
58621;SDS011;44389;51.578;5.456;2022-12-16T00:30:54;90.82;;;36.58;;
58621;SDS011;44389;51.578;5.456;2022-12-16T00:33:20;104.90;;;40.42;;
58621;SDS011;44389;51.578;5.456;2022-12-16T00:38:13;145.45;;;92.85;;
58621;SDS011;44389;51.578;5.456;2022-12-16T00:40:39;135.10;;;90.85;;
58621;SDS011;44389;51.578;5.456;2022-12-16T00:43:05;103.05;;;38.17;;
58621;SDS011;44389;51.578;5.456;2022-12-16T00:45:30;95.93;;;39.08;;
58621;SDS011;44389;51.578;5.456;2022-12-16T00:47:55;134.35;;;84.97;;
58621;SDS011;44389;51.578;5.456;2022-12-16T00:50:21;121.88;;;83.82;;
58621;SDS011;44389;51.578;5.456;2022-12-16T00:52:47;131.45;;;88.80;;
58621;SDS011;44389;51.578;5.456;2022-12-16T00:55:13;136.20;;;88.35;;
58621;SDS011;44389;51.578;5.456;2022-12-16T00:57:39;142.15;;;95.03;;
58621;SDS011;44389;51.578;5.456;2022-12-16T01:00:05;144.02;;;94.55;;
58621;SDS011;44389;51.578;5.456;2022-12-16T01:02:31;138.45;;;90.57;;
58621;SDS011;44389;51.578;5.456;2022-12-16T01:04:57;95.20;;;36.65;;
58621;SDS011;44389;51.578;5.456;2022-12-16T01:07:22;138.45;;;92.80;;
58621;SDS011;44389;51.578;5.456;2022-12-16T01:09:47;136.60;;;92.10;;
58621;SDS011;44389;51.578;5.456;2022-12-16T01:12:12;141.15;;;94.78;;
58621;SDS011;44389;51.578;5.456;2022-12-16T01:14:38;99.65;;;39.38;;
58621;SDS011;44389;51.578;5.456;2022-12-16T01:17:03;129.85;;;88.28;;
58621;SDS011;44389;51.578;5.456;2022-12-16T01:19:28;148.40;;;95.32;;
58621;SDS011;44389;51.578;5.456;2022-12-16T01:21:54;147.18;;;97.70;;
58621;SDS011;44389;51.578;5.456;2022-12-16T01:24:19;140.20;;;91.30;;
58621;SDS011;44389;51.578;5.456;2022-12-16T01:26:44;137.95;;;90.72;;
58621;SDS011;44389;51.578;5.456;2022-12-16T01:29:10;99.80;;;37.63;;
58621;SDS011;44389;51.578;5.456;2022-12-16T01:31:35;135.77;;;88.47;;
58621;SDS011;44389;51.578;5.456;2022-12-16T01:34:00;133.25;;;89.32;;
58621;SDS011;44389;51.578;5.456;2022-12-16T01:36:25;144.85;;;95.38;;
58621;SDS011;44389;51.578;5.456;2022-12-16T01:38:51;141.52;;;94.93;;
58621;SDS011;44389;51.578;5.456;2022-12-16T01:41:16;145.15;;;94.78;;
58621;SDS011;44389;51.578;5.456;2022-12-16T01:43:43;152.40;;;97.95;;
58621;SDS011;44389;51.578;5.456;2022-12-16T01:48:36;138.57;;;90.40;;
58621;SDS011;44389;51.578;5.456;2022-12-16T01:51:13;146.15;;;93.50;;
58621;SDS011;44389;51.578;5.456;2022-12-16T01:53:42;146.80;;;95.50;;
58621;SDS011;44389;51.578;5.456;2022-12-16T01:56:10;149.73;;;94.50;;
58621;SDS011;44389;51.578;5.456;2022-12-16T01:58:39;112.00;;;41.90;;
58621;SDS011;44389;51.578;5.456;2022-12-16T02:01:06;97.35;;;39.45;;
58621;SDS011;44389;51.578;5.456;2022-12-16T02:03:33;140.82;;;91.78;;
58621;SDS011;44389;51.578;5.456;2022-12-16T02:06:00;141.23;;;89.93;;
58621;SDS011;44389;51.578;5.456;2022-12-16T02:08:27;99.47;;;38.83;;
58621;SDS011;44389;51.578;5.456;2022-12-16T02:11:00;144.02;;;92.93;;
58621;SDS011;44389;51.578;5.456;2022-12-16T02:14:01;153.90;;;93.97;;
58621;SDS011;44389;51.578;5.456;2022-12-16T02:24:50;104.03;;;40.90;;
58621;SDS011;44389;51.578;5.456;2022-12-16T02:30:36;154.05;;;98.85;;
58621;SDS011;44389;51.578;5.456;2022-12-16T02:33:16;159.27;;;100.65;;
58621;SDS011;44389;51.578;5.456;2022-12-16T02:36:07;162.65;;;104.43;;
58621;SDS011;44389;51.578;5.456;2022-12-16T02:38:40;160.38;;;101.88;;
58621;SDS011;44389;51.578;5.456;2022-12-16T02:41:30;161.25;;;101.15;;
58621;SDS011;44389;51.578;5.456;2022-12-16T02:44:07;153.35;;;99.07;;
58621;SDS011;44389;51.578;5.456;2022-12-16T02:46:37;149.50;;;95.57;;
58621;SDS011;44389;51.578;5.456;2022-12-16T02:49:08;150.65;;;96.18;;
58621;SDS011;44389;51.578;5.456;2022-12-16T02:51:52;158.18;;;96.00;;
58621;SDS011;44389;51.578;5.456;2022-12-16T02:54:19;109.20;;;42.03;;
58621;SDS011;44389;51.578;5.456;2022-12-16T02:59:20;162.15;;;99.43;;
58621;SDS011;44389;51.578;5.456;2022-12-16T03:01:51;160.00;;;97.60;;
58621;SDS011;44389;51.578;5.456;2022-12-16T03:04:26;159.80;;;99.47;;
58621;SDS011;44389;51.578;5.456;2022-12-16T03:07:01;162.05;;;102.57;;
58621;SDS011;44389;51.578;5.456;2022-12-16T03:09:31;115.97;;;40.88;;
58621;SDS011;44389;51.578;5.456;2022-12-16T03:11:59;157.48;;;98.78;;
58621;SDS011;44389;51.578;5.456;2022-12-16T03:14:30;117.78;;;43.92;;
58621;SDS011;44389;51.578;5.456;2022-12-16T03:16:58;164.40;;;101.28;;
58621;SDS011;44389;51.578;5.456;2022-12-16T03:19:24;160.90;;;100.90;;
58621;SDS011;44389;51.578;5.456;2022-12-16T03:21:57;160.20;;;98.47;;
58621;SDS011;44389;51.578;5.456;2022-12-16T03:24:44;157.63;;;100.70;;
58621;SDS011;44389;51.578;5.456;2022-12-16T03:32:38;158.88;;;100.35;;
58621;SDS011;44389;51.578;5.456;2022-12-16T03:37:44;169.73;;;105.47;;
58621;SDS011;44389;51.578;5.456;2022-12-16T03:40:11;177.30;;;106.13;;
58621;SDS011;44389;51.578;5.456;2022-12-16T03:42:38;164.35;;;102.25;;
58621;SDS011;44389;51.578;5.456;2022-12-16T03:45:06;165.65;;;106.68;;
58621;SDS011;44389;51.578;5.456;2022-12-16T03:47:35;161.73;;;102.25;;
58621;SDS011;44389;51.578;5.456;2022-12-16T03:50:01;166.30;;;103.95;;
58621;SDS011;44389;51.578;5.456;2022-12-16T03:52:27;116.50;;;43.42;;
58621;SDS011;44389;51.578;5.456;2022-12-16T03:54:52;169.10;;;102.53;;
58621;SDS011;44389;51.578;5.456;2022-12-16T03:57:17;165.93;;;105.40;;
58621;SDS011;44389;51.578;5.456;2022-12-16T03:59:43;170.07;;;107.85;;
58621;SDS011;44389;51.578;5.456;2022-12-16T04:02:08;120.30;;;45.67;;
58621;SDS011;44389;51.578;5.456;2022-12-16T04:04:34;175.23;;;107.35;;
58621;SDS011;44389;51.578;5.456;2022-12-16T04:06:59;177.48;;;110.85;;
58621;SDS011;44389;51.578;5.456;2022-12-16T04:09:43;127.78;;;45.65;;
58621;SDS011;44389;51.578;5.456;2022-12-16T04:12:08;124.43;;;44.00;;
58621;SDS011;44389;51.578;5.456;2022-12-16T04:14:52;188.38;;;113.78;;
58621;SDS011;44389;51.578;5.456;2022-12-16T04:17:36;190.05;;;114.40;;
58621;SDS011;44389;51.578;5.456;2022-12-16T04:20:20;193.65;;;115.35;;
58621;SDS011;44389;51.578;5.456;2022-12-16T04:23:08;190.18;;;115.82;;
58621;SDS011;44389;51.578;5.456;2022-12-16T04:25:53;192.43;;;114.65;;
58621;SDS011;44389;51.578;5.456;2022-12-16T04:28:19;200.93;;;116.93;;
58621;SDS011;44389;51.578;5.456;2022-12-16T04:30:44;208.55;;;122.18;;
58621;SDS011;44389;51.578;5.456;2022-12-16T04:33:10;143.27;;;49.72;;
58621;SDS011;44389;51.578;5.456;2022-12-16T04:35:56;209.00;;;116.13;;
58621;SDS011;44389;51.578;5.456;2022-12-16T04:38:40;203.32;;;121.43;;
58621;SDS011;44389;51.578;5.456;2022-12-16T04:41:24;206.13;;;122.85;;
58621;SDS011;44389;51.578;5.456;2022-12-16T04:44:08;223.15;;;124.43;;
58621;SDS011;44389;51.578;5.456;2022-12-16T04:46:51;136.57;;;47.78;;
58621;SDS011;44389;51.578;5.456;2022-12-16T04:49:35;217.70;;;123.95;;
58621;SDS011;44389;51.578;5.456;2022-12-16T04:52:19;135.02;;;47.30;;
58621;SDS011;44389;51.578;5.456;2022-12-16T04:55:04;226.60;;;125.18;;
58621;SDS011;44389;51.578;5.456;2022-12-16T04:57:58;221.80;;;125.93;;
58621;SDS011;44389;51.578;5.456;2022-12-16T05:00:43;229.43;;;130.35;;
58621;SDS011;44389;51.578;5.456;2022-12-16T05:03:28;127.75;;;47.47;;
58621;SDS011;44389;51.578;5.456;2022-12-16T05:06:28;227.25;;;130.18;;
58621;SDS011;44389;51.578;5.456;2022-12-16T05:09:12;153.63;;;50.80;;
58621;SDS011;44389;51.578;5.456;2022-12-16T05:11:56;252.80;;;133.38;;
58621;SDS011;44389;51.578;5.456;2022-12-16T05:14:40;259.52;;;139.18;;
58621;SDS011;44389;51.578;5.456;2022-12-16T05:17:24;266.50;;;142.18;;
58621;SDS011;44389;51.578;5.456;2022-12-16T05:20:08;280.55;;;142.48;;
58621;SDS011;44389;51.578;5.456;2022-12-16T05:22:54;297.98;;;146.27;;
58621;SDS011;44389;51.578;5.456;2022-12-16T05:25:45;320.88;;;151.63;;
58621;SDS011;44389;51.578;5.456;2022-12-16T05:28:29;174.23;;;50.30;;
58621;SDS011;44389;51.578;5.456;2022-12-16T05:31:13;322.55;;;155.38;;
58621;SDS011;44389;51.578;5.456;2022-12-16T05:33:57;350.95;;;160.60;;
58621;SDS011;44389;51.578;5.456;2022-12-16T05:36:41;345.10;;;160.65;;
58621;SDS011;44389;51.578;5.456;2022-12-16T05:39:25;367.38;;;162.85;;
58621;SDS011;44389;51.578;5.456;2022-12-16T05:42:09;392.42;;;167.30;;
58621;SDS011;44389;51.578;5.456;2022-12-16T05:44:52;375.55;;;164.18;;
58621;SDS011;44389;51.578;5.456;2022-12-16T05:47:36;181.95;;;52.28;;
58621;SDS011;44389;51.578;5.456;2022-12-16T05:50:21;379.20;;;166.25;;
58621;SDS011;44389;51.578;5.456;2022-12-16T05:53:05;399.92;;;175.93;;
58621;SDS011;44389;51.578;5.456;2022-12-16T05:55:49;400.42;;;176.38;;
58621;SDS011;44389;51.578;5.456;2022-12-16T05:58:33;416.73;;;175.55;;
58621;SDS011;44389;51.578;5.456;2022-12-16T06:01:17;408.85;;;171.75;;
58621;SDS011;44389;51.578;5.456;2022-12-16T06:04:01;405.27;;;174.15;;
58621;SDS011;44389;51.578;5.456;2022-12-16T06:06:45;399.13;;;174.73;;
58621;SDS011;44389;51.578;5.456;2022-12-16T06:09:29;421.00;;;179.85;;
58621;SDS011;44389;51.578;5.456;2022-12-16T06:12:13;406.52;;;176.43;;
58621;SDS011;44389;51.578;5.456;2022-12-16T06:14:57;202.43;;;52.50;;
58621;SDS011;44389;51.578;5.456;2022-12-16T06:17:48;413.48;;;168.48;;
58621;SDS011;44389;51.578;5.456;2022-12-16T06:20:33;381.77;;;166.98;;
58621;SDS011;44389;51.578;5.456;2022-12-16T06:23:18;392.80;;;168.13;;
58621;SDS011;44389;51.578;5.456;2022-12-16T06:26:02;403.55;;;175.05;;
58621;SDS011;44389;51.578;5.456;2022-12-16T06:28:46;424.65;;;174.18;;
58621;SDS011;44389;51.578;5.456;2022-12-16T06:31:30;431.13;;;176.82;;
58621;SDS011;44389;51.578;5.456;2022-12-16T06:34:14;418.73;;;173.00;;
58621;SDS011;44389;51.578;5.456;2022-12-16T06:36:58;414.15;;;175.23;;
58621;SDS011;44389;51.578;5.456;2022-12-16T06:39:42;432.80;;;178.77;;
58621;SDS011;44389;51.578;5.456;2022-12-16T06:42:26;415.02;;;177.45;;
58621;SDS011;44389;51.578;5.456;2022-12-16T06:45:10;436.83;;;181.38;;
58621;SDS011;44389;51.578;5.456;2022-12-16T06:47:54;431.40;;;178.27;;
58621;SDS011;44389;51.578;5.456;2022-12-16T06:50:38;439.45;;;180.40;;
58621;SDS011;44389;51.578;5.456;2022-12-16T06:53:22;430.00;;;179.95;;
58621;SDS011;44389;51.578;5.456;2022-12-16T06:56:06;439.75;;;180.45;;
58621;SDS011;44389;51.578;5.456;2022-12-16T06:58:50;447.98;;;177.18;;
58621;SDS011;44389;51.578;5.456;2022-12-16T07:01:34;438.15;;;171.85;;
58621;SDS011;44389;51.578;5.456;2022-12-16T07:04:18;197.73;;;55.85;;
58621;SDS011;44389;51.578;5.456;2022-12-16T07:07:02;465.83;;;174.27;;
58621;SDS011;44389;51.578;5.456;2022-12-16T07:09:46;490.70;;;179.23;;
58621;SDS011;44389;51.578;5.456;2022-12-16T07:12:30;526.30;;;186.23;;
58621;SDS011;44389;51.578;5.456;2022-12-16T07:15:13;543.20;;;193.52;;
58621;SDS011;44389;51.578;5.456;2022-12-16T07:17:57;538.63;;;192.07;;
58621;SDS011;44389;51.578;5.456;2022-12-16T07:20:41;229.38;;;58.05;;
58621;SDS011;44389;51.578;5.456;2022-12-16T07:23:25;527.95;;;183.93;;
58621;SDS011;44389;51.578;5.456;2022-12-16T07:26:09;517.30;;;189.77;;
58621;SDS011;44389;51.578;5.456;2022-12-16T07:28:53;525.22;;;188.15;;
58621;SDS011;44389;51.578;5.456;2022-12-16T07:31:37;520.50;;;187.63;;
58621;SDS011;44389;51.578;5.456;2022-12-16T07:34:21;504.38;;;184.10;;
58621;SDS011;44389;51.578;5.456;2022-12-16T07:37:06;508.27;;;182.98;;
58621;SDS011;44389;51.578;5.456;2022-12-16T07:39:50;503.42;;;176.23;;
58621;SDS011;44389;51.578;5.456;2022-12-16T07:42:34;539.97;;;180.15;;
58621;SDS011;44389;51.578;5.456;2022-12-16T07:45:18;540.97;;;177.85;;
58621;SDS011;44389;51.578;5.456;2022-12-16T07:48:01;519.00;;;176.70;;
58621;SDS011;44389;51.578;5.456;2022-12-16T07:50:45;241.32;;;52.03;;
58621;SDS011;44389;51.578;5.456;2022-12-16T07:53:29;513.55;;;175.93;;
58621;SDS011;44389;51.578;5.456;2022-12-16T07:56:13;516.85;;;178.85;;
58621;SDS011;44389;51.578;5.456;2022-12-16T07:58:57;224.05;;;52.67;;
58621;SDS011;44389;51.578;5.456;2022-12-16T08:01:41;597.10;;;181.63;;
58621;SDS011;44389;51.578;5.456;2022-12-16T08:04:25;524.88;;;181.65;;
58621;SDS011;44389;51.578;5.456;2022-12-16T08:07:09;534.75;;;185.45;;
58621;SDS011;44389;51.578;5.456;2022-12-16T08:09:53;564.47;;;192.82;;
58621;SDS011;44389;51.578;5.456;2022-12-16T08:12:41;627.17;;;180.63;;
58621;SDS011;44389;51.578;5.456;2022-12-16T08:15:25;628.90;;;184.77;;
58621;SDS011;44389;51.578;5.456;2022-12-16T08:18:09;566.92;;;172.77;;
58621;SDS011;44389;51.578;5.456;2022-12-16T08:20:53;810.40;;;192.00;;
58621;SDS011;44389;51.578;5.456;2022-12-16T08:23:36;1159.88;;;232.43;;
58621;SDS011;44389;51.578;5.456;2022-12-16T08:26:20;186.40;;;50.78;;
58621;SDS011;44389;51.578;5.456;2022-12-16T08:29:04;614.17;;;182.05;;
58621;SDS011;44389;51.578;5.456;2022-12-16T08:31:48;1284.47;;;238.90;;
58621;SDS011;44389;51.578;5.456;2022-12-16T08:34:32;528.53;;;182.68;;
58621;SDS011;44389;51.578;5.456;2022-12-16T08:37:16;543.22;;;183.95;;
58621;SDS011;44389;51.578;5.456;2022-12-16T08:40:00;593.67;;;179.90;;
58621;SDS011;44389;51.578;5.456;2022-12-16T08:42:44;450.05;;;170.80;;
58621;SDS011;44389;51.578;5.456;2022-12-16T08:45:28;500.35;;;173.65;;
58621;SDS011;44389;51.578;5.456;2022-12-16T08:48:12;795.42;;;195.30;;
58621;SDS011;44389;51.578;5.456;2022-12-16T08:50:57;680.60;;;187.10;;
58621;SDS011;44389;51.578;5.456;2022-12-16T08:53:44;635.70;;;186.40;;
58621;SDS011;44389;51.578;5.456;2022-12-16T08:56:28;575.58;;;185.27;;
58621;SDS011;44389;51.578;5.456;2022-12-16T08:59:12;663.85;;;183.32;;
58621;SDS011;44389;51.578;5.456;2022-12-16T09:01:56;242.43;;;50.13;;
58621;SDS011;44389;51.578;5.456;2022-12-16T09:04:40;193.00;;;47.42;;
58621;SDS011;44389;51.578;5.456;2022-12-16T09:07:24;477.88;;;168.57;;
58621;SDS011;44389;51.578;5.456;2022-12-16T09:10:08;517.53;;;169.15;;
58621;SDS011;44389;51.578;5.456;2022-12-16T09:12:51;660.38;;;173.50;;
58621;SDS011;44389;51.578;5.456;2022-12-16T09:15:35;552.78;;;163.73;;
58621;SDS011;44389;51.578;5.456;2022-12-16T09:18:19;451.60;;;157.00;;
58621;SDS011;44389;51.578;5.456;2022-12-16T09:21:03;551.90;;;166.35;;
58621;SDS011;44389;51.578;5.456;2022-12-16T09:23:47;453.55;;;165.65;;
58621;SDS011;44389;51.578;5.456;2022-12-16T09:26:31;208.05;;;49.22;;
58621;SDS011;44389;51.578;5.456;2022-12-16T09:29:15;485.80;;;166.15;;
58621;SDS011;44389;51.578;5.456;2022-12-16T09:31:59;632.58;;;174.05;;
58621;SDS011;44389;51.578;5.456;2022-12-16T09:34:43;595.17;;;167.02;;
58621;SDS011;44389;51.578;5.456;2022-12-16T09:37:28;444.30;;;186.55;;
58621;SDS011;44389;51.578;5.456;2022-12-16T09:40:13;201.90;;;49.45;;
58621;SDS011;44389;51.578;5.456;2022-12-16T09:43:07;381.85;;;155.77;;
58621;SDS011;44389;51.578;5.456;2022-12-16T09:49:21;454.55;;;158.20;;
58621;SDS011;44389;51.578;5.456;2022-12-16T09:52:26;383.65;;;150.88;;
58621;SDS011;44389;51.578;5.456;2022-12-16T09:55:53;441.17;;;153.98;;
58621;SDS011;44389;51.578;5.456;2022-12-16T09:58:23;542.53;;;214.55;;
58621;SDS011;44389;51.578;5.456;2022-12-16T10:01:12;394.35;;;161.82;;
58621;SDS011;44389;51.578;5.456;2022-12-16T10:03:56;431.38;;;166.13;;
58621;SDS011;44389;51.578;5.456;2022-12-16T10:07:02;340.90;;;137.15;;
58621;SDS011;44389;51.578;5.456;2022-12-16T10:19:45;205.35;;;55.85;;
58621;SDS011;44389;51.578;5.456;2022-12-16T10:25:59;298.73;;;132.88;;
58621;SDS011;44389;51.578;5.456;2022-12-16T10:32:13;320.88;;;134.18;;
58621;SDS011;44389;51.578;5.456;2022-12-16T10:35:01;297.10;;;139.15;;
58621;SDS011;44389;51.578;5.456;2022-12-16T10:37:58;296.00;;;136.90;;
58621;SDS011;44389;51.578;5.456;2022-12-16T10:40:43;271.98;;;127.00;;
58621;SDS011;44389;51.578;5.456;2022-12-16T10:43:34;156.80;;;44.47;;
58621;SDS011;44389;51.578;5.456;2022-12-16T10:46:24;298.38;;;134.90;;
58621;SDS011;44389;51.578;5.456;2022-12-16T10:49:12;394.70;;;144.27;;
58621;SDS011;44389;51.578;5.456;2022-12-16T10:51:57;285.23;;;122.15;;
58621;SDS011;44389;51.578;5.456;2022-12-16T10:54:42;265.05;;;123.43;;
58621;SDS011;44389;51.578;5.456;2022-12-16T10:57:53;257.88;;;122.82;;
58621;SDS011;44389;51.578;5.456;2022-12-16T11:00:46;251.23;;;123.03;;
58621;SDS011;44389;51.578;5.456;2022-12-16T11:03:33;221.43;;;110.72;;
58621;SDS011;44389;51.578;5.456;2022-12-16T11:06:19;142.25;;;42.00;;
58621;SDS011;44389;51.578;5.456;2022-12-16T11:15:00;211.77;;;107.47;;
58621;SDS011;44389;51.578;5.456;2022-12-16T11:17:59;243.75;;;115.53;;
58621;SDS011;44389;51.578;5.456;2022-12-16T11:20:44;240.88;;;113.80;;
58621;SDS011;44389;51.578;5.456;2022-12-16T11:23:28;238.05;;;113.07;;
58621;SDS011;44389;51.578;5.456;2022-12-16T11:26:16;265.55;;;125.25;;
58621;SDS011;44389;51.578;5.456;2022-12-16T11:29:07;238.80;;;116.32;;
58621;SDS011;44389;51.578;5.456;2022-12-16T11:31:59;237.30;;;116.90;;
58621;SDS011;44389;51.578;5.456;2022-12-16T11:34:48;215.48;;;110.15;;
58621;SDS011;44389;51.578;5.456;2022-12-16T11:37:36;290.83;;;132.38;;
58621;SDS011;44389;51.578;5.456;2022-12-16T11:40:21;244.30;;;118.70;;
58621;SDS011;44389;51.578;5.456;2022-12-16T11:43:07;237.55;;;118.32;;
58621;SDS011;44389;51.578;5.456;2022-12-16T11:45:56;232.32;;;114.90;;
58621;SDS011;44389;51.578;5.456;2022-12-16T11:48:47;229.02;;;114.35;;
58621;SDS011;44389;51.578;5.456;2022-12-16T11:51:36;241.07;;;113.57;;
58621;SDS011;44389;51.578;5.456;2022-12-16T11:54:24;134.60;;;41.90;;
58621;SDS011;44389;51.578;5.456;2022-12-16T11:57:23;219.98;;;109.47;;
58621;SDS011;44389;51.578;5.456;2022-12-16T12:00:19;221.50;;;113.40;;
58621;SDS011;44389;51.578;5.456;2022-12-16T12:03:04;226.30;;;114.28;;
58621;SDS011;44389;51.578;5.456;2022-12-16T12:09:07;231.15;;;118.88;;
58621;SDS011;44389;51.578;5.456;2022-12-16T12:15:42;221.05;;;114.30;;
58621;SDS011;44389;51.578;5.456;2022-12-16T12:18:15;219.55;;;112.20;;
58621;SDS011;44389;51.578;5.456;2022-12-16T12:24:06;214.00;;;111.10;;
58621;SDS011;44389;51.578;5.456;2022-12-16T12:30:00;195.75;;;100.15;;
58621;SDS011;44389;51.578;5.456;2022-12-16T12:36:24;186.25;;;98.03;;
58621;SDS011;44389;51.578;5.456;2022-12-16T12:39:52;179.15;;;93.57;;
58621;SDS011;44389;51.578;5.456;2022-12-16T12:42:44;181.07;;;94.45;;
58621;SDS011;44389;51.578;5.456;2022-12-16T12:48:23;182.38;;;93.90;;
58621;SDS011;44389;51.578;5.456;2022-12-16T12:57:07;184.35;;;99.50;;
58621;SDS011;44389;51.578;5.456;2022-12-16T13:06:24;171.75;;;87.55;;
58621;SDS011;44389;51.578;5.456;2022-12-16T13:09:24;160.13;;;82.78;;
58621;SDS011;44389;51.578;5.456;2022-12-16T13:18:36;271.00;;;117.05;;
58621;SDS011;44389;51.578;5.456;2022-12-16T13:27:25;172.98;;;83.25;;
58621;SDS011;44389;51.578;5.456;2022-12-16T13:32:55;172.70;;;88.00;;
58621;SDS011;44389;51.578;5.456;2022-12-16T13:35:53;162.90;;;84.63;;
58621;SDS011;44389;51.578;5.456;2022-12-16T13:38:45;161.70;;;79.40;;
58621;SDS011;44389;51.578;5.456;2022-12-16T13:50:39;141.80;;;74.65;;
58621;SDS011;44389;51.578;5.456;2022-12-16T13:53:26;151.07;;;78.38;;
58621;SDS011;44389;51.578;5.456;2022-12-16T13:56:13;136.40;;;73.78;;
58621;SDS011;44389;51.578;5.456;2022-12-16T13:59:05;142.35;;;72.00;;
58621;SDS011;44389;51.578;5.456;2022-12-16T14:02:00;146.32;;;78.30;;
58621;SDS011;44389;51.578;5.456;2022-12-16T14:04:54;178.85;;;80.75;;
58621;SDS011;44389;51.578;5.456;2022-12-16T14:07:38;199.63;;;89.95;;
58621;SDS011;44389;51.578;5.456;2022-12-16T14:10:25;183.95;;;88.00;;
58621;SDS011;44389;51.578;5.456;2022-12-16T14:16:10;163.02;;;85.78;;
58621;SDS011;44389;51.578;5.456;2022-12-16T14:19:18;142.45;;;70.13;;
58621;SDS011;44389;51.578;5.456;2022-12-16T14:25:21;161.07;;;83.10;;
58621;SDS011;44389;51.578;5.456;2022-12-16T14:28:07;151.70;;;79.82;;
58621;SDS011;44389;51.578;5.456;2022-12-16T14:31:20;156.60;;;73.03;;
58621;SDS011;44389;51.578;5.456;2022-12-16T14:34:16;137.77;;;70.43;;
58621;SDS011;44389;51.578;5.456;2022-12-16T14:40:22;138.13;;;71.75;;
58621;SDS011;44389;51.578;5.456;2022-12-16T14:43:14;147.38;;;72.28;;
58621;SDS011;44389;51.578;5.456;2022-12-16T14:45:58;136.13;;;71.13;;
58621;SDS011;44389;51.578;5.456;2022-12-16T14:48:44;143.73;;;72.35;;
58621;SDS011;44389;51.578;5.456;2022-12-16T14:51:33;144.48;;;73.28;;
58621;SDS011;44389;51.578;5.456;2022-12-16T14:54:29;141.52;;;73.78;;
58621;SDS011;44389;51.578;5.456;2022-12-16T14:57:25;128.18;;;68.25;;
58621;SDS011;44389;51.578;5.456;2022-12-16T15:03:15;143.65;;;72.50;;
58621;SDS011;44389;51.578;5.456;2022-12-16T15:06:10;143.82;;;72.45;;
58621;SDS011;44389;51.578;5.456;2022-12-16T15:09:01;134.43;;;69.38;;
58621;SDS011;44389;51.578;5.456;2022-12-16T15:11:49;135.02;;;69.20;;
58621;SDS011;44389;51.578;5.456;2022-12-16T15:14:36;144.68;;;71.90;;
58621;SDS011;44389;51.578;5.456;2022-12-16T15:17:22;139.07;;;74.18;;
58621;SDS011;44389;51.578;5.456;2022-12-16T15:20:35;147.48;;;73.57;;
58621;SDS011;44389;51.578;5.456;2022-12-16T15:23:23;154.50;;;77.30;;
58621;SDS011;44389;51.578;5.456;2022-12-16T15:26:15;154.00;;;78.65;;
58621;SDS011;44389;51.578;5.456;2022-12-16T15:29:01;147.02;;;75.05;;
58621;SDS011;44389;51.578;5.456;2022-12-16T15:31:45;141.18;;;75.10;;
58621;SDS011;44389;51.578;5.456;2022-12-16T15:34:47;146.50;;;75.72;;
58621;SDS011;44389;51.578;5.456;2022-12-16T15:37:38;170.90;;;82.28;;
58621;SDS011;44389;51.578;5.456;2022-12-16T15:40:30;172.20;;;81.25;;
58621;SDS011;44389;51.578;5.456;2022-12-16T15:43:19;162.45;;;80.65;;
58621;SDS011;44389;51.578;5.456;2022-12-16T15:46:42;169.18;;;80.47;;
58621;SDS011;44389;51.578;5.456;2022-12-16T15:49:28;170.90;;;82.88;;
58621;SDS011;44389;51.578;5.456;2022-12-16T15:52:25;163.93;;;78.18;;
58621;SDS011;44389;51.578;5.456;2022-12-16T15:58:28;169.98;;;79.55;;
58621;SDS011;44389;51.578;5.456;2022-12-16T16:01:17;168.23;;;81.43;;
58621;SDS011;44389;51.578;5.456;2022-12-16T16:04:02;175.95;;;84.78;;
58621;SDS011;44389;51.578;5.456;2022-12-16T16:06:47;177.00;;;84.68;;
58621;SDS011;44389;51.578;5.456;2022-12-16T16:09:33;181.15;;;85.00;;
58621;SDS011;44389;51.578;5.456;2022-12-16T16:12:20;172.73;;;83.82;;
58621;SDS011;44389;51.578;5.456;2022-12-16T16:15:06;187.30;;;86.97;;
58621;SDS011;44389;51.578;5.456;2022-12-16T16:17:54;182.05;;;87.10;;
58621;SDS011;44389;51.578;5.456;2022-12-16T16:20:42;185.75;;;90.28;;
58621;SDS011;44389;51.578;5.456;2022-12-16T16:23:27;185.40;;;88.60;;
58621;SDS011;44389;51.578;5.456;2022-12-16T16:26:12;177.43;;;87.57;;
58621;SDS011;44389;51.578;5.456;2022-12-16T16:28:57;188.30;;;91.05;;
58621;SDS011;44389;51.578;5.456;2022-12-16T16:31:58;187.65;;;90.38;;
58621;SDS011;44389;51.578;5.456;2022-12-16T16:34:44;192.82;;;92.50;;
58621;SDS011;44389;51.578;5.456;2022-12-16T16:37:28;195.63;;;88.78;;
58621;SDS011;44389;51.578;5.456;2022-12-16T16:40:16;187.75;;;89.93;;
58621;SDS011;44389;51.578;5.456;2022-12-16T16:43:05;197.07;;;93.18;;
58621;SDS011;44389;51.578;5.456;2022-12-16T16:45:51;201.35;;;92.85;;
58621;SDS011;44389;51.578;5.456;2022-12-16T16:48:37;194.90;;;92.32;;
58621;SDS011;44389;51.578;5.456;2022-12-16T16:51:20;205.10;;;95.50;;
58621;SDS011;44389;51.578;5.456;2022-12-16T16:54:04;201.57;;;92.18;;
58621;SDS011;44389;51.578;5.456;2022-12-16T16:56:48;127.57;;;38.10;;
58621;SDS011;44389;51.578;5.456;2022-12-16T16:59:34;197.30;;;92.95;;
58621;SDS011;44389;51.578;5.456;2022-12-16T17:02:19;197.02;;;94.05;;
58621;SDS011;44389;51.578;5.456;2022-12-16T17:05:05;210.15;;;95.07;;
58621;SDS011;44389;51.578;5.456;2022-12-16T17:07:50;210.10;;;95.95;;
58621;SDS011;44389;51.578;5.456;2022-12-16T17:10:33;219.07;;;98.53;;
58621;SDS011;44389;51.578;5.456;2022-12-16T17:13:17;220.35;;;100.50;;
58621;SDS011;44389;51.578;5.456;2022-12-16T17:16:01;220.95;;;102.53;;
58621;SDS011;44389;51.578;5.456;2022-12-16T17:18:45;213.60;;;98.18;;
58621;SDS011;44389;51.578;5.456;2022-12-16T17:21:29;222.55;;;102.90;;
58621;SDS011;44389;51.578;5.456;2022-12-16T17:24:13;204.20;;;101.25;;
58621;SDS011;44389;51.578;5.456;2022-12-16T17:26:57;236.35;;;105.85;;
58621;SDS011;44389;51.578;5.456;2022-12-16T17:29:41;244.07;;;116.13;;
58621;SDS011;44389;51.578;5.456;2022-12-16T17:32:25;225.35;;;110.22;;
58621;SDS011;44389;51.578;5.456;2022-12-16T17:35:12;225.73;;;110.32;;